sensor_id;sensor_type;location;lat;lon;timestamp;pressure;altitude;pressure_sealevel;temperature
75811;BMP280;64449;50.016;19.954;2024-01-15T00:01:42;96853.77;;;2.49
75811;BMP280;64449;50.016;19.954;2024-01-15T00:04:08;96850.71;;;2.49
75811;BMP280;64449;50.016;19.954;2024-01-15T00:06:33;96851.54;;;2.49
75811;BMP280;64449;50.016;19.954;2024-01-15T00:08:59;96848.23;;;2.49
75811;BMP280;64449;50.016;19.954;2024-01-15T00:11:24;96847.29;;;2.49
75811;BMP280;64449;50.016;19.954;2024-01-15T00:13:49;96842.27;;;2.48
75811;BMP280;64449;50.016;19.954;2024-01-15T00:16:15;96838.10;;;2.49
75811;BMP280;64449;50.016;19.954;2024-01-15T00:18:40;96828.77;;;2.49
75811;BMP280;64449;50.016;19.954;2024-01-15T00:21:05;96827.23;;;2.49
75811;BMP280;64449;50.016;19.954;2024-01-15T00:23:31;96812.84;;;2.49
75811;BMP280;64449;50.016;19.954;2024-01-15T00:25:56;96803.39;;;2.50
75811;BMP280;64449;50.016;19.954;2024-01-15T00:28:22;96807.58;;;2.51
75811;BMP280;64449;50.016;19.954;2024-01-15T00:30:47;96809.04;;;2.50
75811;BMP280;64449;50.016;19.954;2024-01-15T00:33:12;96810.45;;;2.50
75811;BMP280;64449;50.016;19.954;2024-01-15T00:35:40;96804.15;;;2.51
75811;BMP280;64449;50.016;19.954;2024-01-15T00:38:06;96806.32;;;2.52
75811;BMP280;64449;50.016;19.954;2024-01-15T00:40:31;96803.76;;;2.52
75811;BMP280;64449;50.016;19.954;2024-01-15T00:42:56;96803.16;;;2.53
75811;BMP280;64449;50.016;19.954;2024-01-15T00:45:22;96799.81;;;2.53
75811;BMP280;64449;50.016;19.954;2024-01-15T00:47:48;96795.19;;;2.53
75811;BMP280;64449;50.016;19.954;2024-01-15T00:50:14;96789.16;;;2.53
75811;BMP280;64449;50.016;19.954;2024-01-15T00:52:40;96788.77;;;2.54
75811;BMP280;64449;50.016;19.954;2024-01-15T00:55:06;96788.34;;;2.54
75811;BMP280;64449;50.016;19.954;2024-01-15T00:57:31;96789.62;;;2.54
75811;BMP280;64449;50.016;19.954;2024-01-15T00:59:58;96789.27;;;2.55
75811;BMP280;64449;50.016;19.954;2024-01-15T01:02:23;96791.98;;;2.56
75811;BMP280;64449;50.016;19.954;2024-01-15T01:04:48;96782.83;;;2.56
75811;BMP280;64449;50.016;19.954;2024-01-15T01:07:14;96781.31;;;2.56
75811;BMP280;64449;50.016;19.954;2024-01-15T01:09:39;96784.40;;;2.56
75811;BMP280;64449;50.016;19.954;2024-01-15T01:12:05;96780.17;;;2.56
75811;BMP280;64449;50.016;19.954;2024-01-15T01:14:32;96775.39;;;2.56
75811;BMP280;64449;50.016;19.954;2024-01-15T01:16:57;96778.91;;;2.57
75811;BMP280;64449;50.016;19.954;2024-01-15T01:19:23;96775.83;;;2.57
75811;BMP280;64449;50.016;19.954;2024-01-15T01:21:50;96771.27;;;2.56
75811;BMP280;64449;50.016;19.954;2024-01-15T01:24:16;96767.24;;;2.56
75811;BMP280;64449;50.016;19.954;2024-01-15T01:26:41;96764.54;;;2.57
75811;BMP280;64449;50.016;19.954;2024-01-15T01:29:07;96760.63;;;2.56
75811;BMP280;64449;50.016;19.954;2024-01-15T01:31:32;96757.20;;;2.56
75811;BMP280;64449;50.016;19.954;2024-01-15T01:33:57;96754.73;;;2.54
75811;BMP280;64449;50.016;19.954;2024-01-15T01:36:23;96750.15;;;2.54
75811;BMP280;64449;50.016;19.954;2024-01-15T01:38:49;96753.05;;;2.54
75811;BMP280;64449;50.016;19.954;2024-01-15T01:41:14;96746.66;;;2.53
75811;BMP280;64449;50.016;19.954;2024-01-15T01:43:40;96738.87;;;2.53
75811;BMP280;64449;50.016;19.954;2024-01-15T01:46:05;96732.23;;;2.52
75811;BMP280;64449;50.016;19.954;2024-01-15T01:48:32;96730.02;;;2.52
75811;BMP280;64449;50.016;19.954;2024-01-15T01:51:00;96728.23;;;2.52
75811;BMP280;64449;50.016;19.954;2024-01-15T01:53:26;96717.52;;;2.51
75811;BMP280;64449;50.016;19.954;2024-01-15T01:55:54;96717.02;;;2.51
75811;BMP280;64449;50.016;19.954;2024-01-15T01:58:20;96716.16;;;2.51
75811;BMP280;64449;50.016;19.954;2024-01-15T02:00:46;96710.07;;;2.51
75811;BMP280;64449;50.016;19.954;2024-01-15T02:03:12;96703.89;;;2.51
75811;BMP280;64449;50.016;19.954;2024-01-15T02:05:39;96699.27;;;2.50
75811;BMP280;64449;50.016;19.954;2024-01-15T02:08:05;96690.95;;;2.49
75811;BMP280;64449;50.016;19.954;2024-01-15T02:10:30;96691.36;;;2.50
75811;BMP280;64449;50.016;19.954;2024-01-15T02:12:56;96685.56;;;2.49
75811;BMP280;64449;50.016;19.954;2024-01-15T02:15:21;96685.55;;;2.49
75811;BMP280;64449;50.016;19.954;2024-01-15T02:20:45;96680.86;;;2.47
75811;BMP280;64449;50.016;19.954;2024-01-15T02:23:14;96682.15;;;2.46
75811;BMP280;64449;50.016;19.954;2024-01-15T02:25:41;96679.23;;;2.46
75811;BMP280;64449;50.016;19.954;2024-01-15T02:28:17;96671.30;;;2.45
75811;BMP280;64449;50.016;19.954;2024-01-15T02:30:43;96677.52;;;2.45
75811;BMP280;64449;50.016;19.954;2024-01-15T02:33:10;96670.27;;;2.45
75811;BMP280;64449;50.016;19.954;2024-01-15T02:35:36;96668.74;;;2.45
75811;BMP280;64449;50.016;19.954;2024-01-15T02:38:03;96666.96;;;2.45
75811;BMP280;64449;50.016;19.954;2024-01-15T02:40:29;96661.13;;;2.45
75811;BMP280;64449;50.016;19.954;2024-01-15T02:42:54;96655.86;;;2.46
75811;BMP280;64449;50.016;19.954;2024-01-15T02:45:20;96652.27;;;2.47
75811;BMP280;64449;50.016;19.954;2024-01-15T02:47:46;96651.42;;;2.46
75811;BMP280;64449;50.016;19.954;2024-01-15T02:50:11;96653.61;;;2.46
75811;BMP280;64449;50.016;19.954;2024-01-15T02:52:36;96650.70;;;2.44
75811;BMP280;64449;50.016;19.954;2024-01-15T02:55:02;96646.77;;;2.43
75811;BMP280;64449;50.016;19.954;2024-01-15T02:57:27;96646.00;;;2.41
75811;BMP280;64449;50.016;19.954;2024-01-15T02:59:53;96639.09;;;2.40
75811;BMP280;64449;50.016;19.954;2024-01-15T03:02:18;96642.20;;;2.39
75811;BMP280;64449;50.016;19.954;2024-01-15T03:04:44;96631.05;;;2.38
75811;BMP280;64449;50.016;19.954;2024-01-15T03:07:10;96636.71;;;2.38
75811;BMP280;64449;50.016;19.954;2024-01-15T03:09:35;96625.44;;;2.37
75811;BMP280;64449;50.016;19.954;2024-01-15T03:12:01;96626.35;;;2.37
75811;BMP280;64449;50.016;19.954;2024-01-15T03:14:26;96623.12;;;2.37
75811;BMP280;64449;50.016;19.954;2024-01-15T03:16:52;96618.98;;;2.37
75811;BMP280;64449;50.016;19.954;2024-01-15T03:19:17;96613.05;;;2.37
75811;BMP280;64449;50.016;19.954;2024-01-15T03:21:43;96612.06;;;2.36
75811;BMP280;64449;50.016;19.954;2024-01-15T03:24:08;96609.92;;;2.35
75811;BMP280;64449;50.016;19.954;2024-01-15T03:26:33;96608.47;;;2.35
75811;BMP280;64449;50.016;19.954;2024-01-15T03:28:59;96612.17;;;2.36
75811;BMP280;64449;50.016;19.954;2024-01-15T03:31:24;96613.14;;;2.35
75811;BMP280;64449;50.016;19.954;2024-01-15T03:33:49;96615.27;;;2.35
75811;BMP280;64449;50.016;19.954;2024-01-15T03:36:15;96614.84;;;2.34
75811;BMP280;64449;50.016;19.954;2024-01-15T03:38:41;96617.77;;;2.33
75811;BMP280;64449;50.016;19.954;2024-01-15T03:41:07;96610.90;;;2.33
75811;BMP280;64449;50.016;19.954;2024-01-15T03:43:33;96604.16;;;2.33
75811;BMP280;64449;50.016;19.954;2024-01-15T03:45:58;96599.84;;;2.34
75811;BMP280;64449;50.016;19.954;2024-01-15T03:48:23;96597.77;;;2.33
75811;BMP280;64449;50.016;19.954;2024-01-15T03:50:49;96582.23;;;2.32
75811;BMP280;64449;50.016;19.954;2024-01-15T03:53:14;96569.73;;;2.31
75811;BMP280;64449;50.016;19.954;2024-01-15T03:55:40;96567.27;;;2.30
75811;BMP280;64449;50.016;19.954;2024-01-15T03:58:05;96566.52;;;2.30
75811;BMP280;64449;50.016;19.954;2024-01-15T04:00:30;96567.56;;;2.29
75811;BMP280;64449;50.016;19.954;2024-01-15T04:02:56;96569.58;;;2.28
75811;BMP280;64449;50.016;19.954;2024-01-15T04:05:21;96569.91;;;2.28
75811;BMP280;64449;50.016;19.954;2024-01-15T04:07:47;96566.98;;;2.28
75811;BMP280;64449;50.016;19.954;2024-01-15T04:10:12;96560.68;;;2.27
75811;BMP280;64449;50.016;19.954;2024-01-15T04:12:37;96556.02;;;2.28
75811;BMP280;64449;50.016;19.954;2024-01-15T04:15:03;96553.98;;;2.28
75811;BMP280;64449;50.016;19.954;2024-01-15T04:17:29;96546.44;;;2.29
75811;BMP280;64449;50.016;19.954;2024-01-15T04:19:54;96549.64;;;2.28
75811;BMP280;64449;50.016;19.954;2024-01-15T04:22:20;96535.25;;;2.29
75811;BMP280;64449;50.016;19.954;2024-01-15T04:24:45;96544.52;;;2.30
75811;BMP280;64449;50.016;19.954;2024-01-15T04:27:11;96533.30;;;2.30
75811;BMP280;64449;50.016;19.954;2024-01-15T04:29:39;96530.52;;;2.30
75811;BMP280;64449;50.016;19.954;2024-01-15T04:32:05;96525.69;;;2.29
75811;BMP280;64449;50.016;19.954;2024-01-15T04:34:31;96529.21;;;2.28
75811;BMP280;64449;50.016;19.954;2024-01-15T04:36:57;96527.65;;;2.27
75811;BMP280;64449;50.016;19.954;2024-01-15T04:39:22;96533.40;;;2.27
75811;BMP280;64449;50.016;19.954;2024-01-15T04:41:48;96526.76;;;2.27
75811;BMP280;64449;50.016;19.954;2024-01-15T04:44:13;96526.22;;;2.27
75811;BMP280;64449;50.016;19.954;2024-01-15T04:46:39;96528.08;;;2.26
75811;BMP280;64449;50.016;19.954;2024-01-15T04:49:04;96530.30;;;2.28
75811;BMP280;64449;50.016;19.954;2024-01-15T04:51:30;96530.45;;;2.28
75811;BMP280;64449;50.016;19.954;2024-01-15T04:53:55;96527.66;;;2.28
75811;BMP280;64449;50.016;19.954;2024-01-15T04:56:21;96519.59;;;2.28
75811;BMP280;64449;50.016;19.954;2024-01-15T04:58:46;96522.08;;;2.29
75811;BMP280;64449;50.016;19.954;2024-01-15T05:01:11;96519.85;;;2.29
75811;BMP280;64449;50.016;19.954;2024-01-15T05:03:37;96531.83;;;2.30
75811;BMP280;64449;50.016;19.954;2024-01-15T05:06:03;96523.05;;;2.31
75811;BMP280;64449;50.016;19.954;2024-01-15T05:08:28;96513.58;;;2.32
75811;BMP280;64449;50.016;19.954;2024-01-15T05:10:53;96518.36;;;2.31
75811;BMP280;64449;50.016;19.954;2024-01-15T05:13:19;96513.48;;;2.33
75811;BMP280;64449;50.016;19.954;2024-01-15T05:15:45;96515.50;;;2.34
75811;BMP280;64449;50.016;19.954;2024-01-15T05:18:10;96522.26;;;2.34
75811;BMP280;64449;50.016;19.954;2024-01-15T05:20:35;96523.01;;;2.34
75811;BMP280;64449;50.016;19.954;2024-01-15T05:23:01;96512.46;;;2.36
75811;BMP280;64449;50.016;19.954;2024-01-15T05:25:26;96509.60;;;2.37
75811;BMP280;64449;50.016;19.954;2024-01-15T05:27:52;96511.77;;;2.39
75811;BMP280;64449;50.016;19.954;2024-01-15T05:30:17;96510.80;;;2.40
75811;BMP280;64449;50.016;19.954;2024-01-15T05:32:42;96518.30;;;2.40
75811;BMP280;64449;50.016;19.954;2024-01-15T05:35:08;96518.23;;;2.42
75811;BMP280;64449;50.016;19.954;2024-01-15T05:37:33;96524.14;;;2.41
75811;BMP280;64449;50.016;19.954;2024-01-15T05:39:58;96516.55;;;2.42
75811;BMP280;64449;50.016;19.954;2024-01-15T05:42:24;96519.59;;;2.43
75811;BMP280;64449;50.016;19.954;2024-01-15T05:44:51;96522.83;;;2.44
75811;BMP280;64449;50.016;19.954;2024-01-15T05:47:17;96521.07;;;2.45
75811;BMP280;64449;50.016;19.954;2024-01-15T05:49:43;96517.48;;;2.45
75811;BMP280;64449;50.016;19.954;2024-01-15T05:52:09;96511.52;;;2.46
75811;BMP280;64449;50.016;19.954;2024-01-15T05:54:34;96511.83;;;2.47
75811;BMP280;64449;50.016;19.954;2024-01-15T05:56:59;96513.34;;;2.46
75811;BMP280;64449;50.016;19.954;2024-01-15T05:59:25;96509.64;;;2.47
75811;BMP280;64449;50.016;19.954;2024-01-15T06:01:50;96509.09;;;2.48
75811;BMP280;64449;50.016;19.954;2024-01-15T06:04:16;96503.59;;;2.47
75811;BMP280;64449;50.016;19.954;2024-01-15T06:06:41;96513.26;;;2.46
75811;BMP280;64449;50.016;19.954;2024-01-15T06:09:06;96513.73;;;2.45
75811;BMP280;64449;50.016;19.954;2024-01-15T06:11:32;96511.58;;;2.45
75811;BMP280;64449;50.016;19.954;2024-01-15T06:13:58;96507.38;;;2.44
75811;BMP280;64449;50.016;19.954;2024-01-15T06:16:24;96516.23;;;2.44
75811;BMP280;64449;50.016;19.954;2024-01-15T06:18:49;96503.27;;;2.43
75811;BMP280;64449;50.016;19.954;2024-01-15T06:21:16;96507.75;;;2.42
75811;BMP280;64449;50.016;19.954;2024-01-15T06:23:41;96503.58;;;2.42
75811;BMP280;64449;50.016;19.954;2024-01-15T06:26:06;96511.46;;;2.41
75811;BMP280;64449;50.016;19.954;2024-01-15T06:28:32;96517.29;;;2.41
75811;BMP280;64449;50.016;19.954;2024-01-15T06:30:57;96515.71;;;2.41
75811;BMP280;64449;50.016;19.954;2024-01-15T06:33:23;96518.98;;;2.41
75811;BMP280;64449;50.016;19.954;2024-01-15T06:35:50;96514.60;;;2.40
75811;BMP280;64449;50.016;19.954;2024-01-15T06:38:16;96520.08;;;2.41
75811;BMP280;64449;50.016;19.954;2024-01-15T06:40:41;96512.23;;;2.41
75811;BMP280;64449;50.016;19.954;2024-01-15T06:43:14;96518.14;;;2.41
75811;BMP280;64449;50.016;19.954;2024-01-15T06:45:40;96513.85;;;2.42
75811;BMP280;64449;50.016;19.954;2024-01-15T06:48:06;96508.89;;;2.42
75811;BMP280;64449;50.016;19.954;2024-01-15T06:50:33;96503.11;;;2.42
75811;BMP280;64449;50.016;19.954;2024-01-15T06:52:58;96505.54;;;2.41
75811;BMP280;64449;50.016;19.954;2024-01-15T06:55:24;96503.88;;;2.42
75811;BMP280;64449;50.016;19.954;2024-01-15T06:57:49;96511.86;;;2.43
75811;BMP280;64449;50.016;19.954;2024-01-15T07:00:16;96509.75;;;2.44
75811;BMP280;64449;50.016;19.954;2024-01-15T07:02:41;96520.34;;;2.45
75811;BMP280;64449;50.016;19.954;2024-01-15T07:05:07;96516.23;;;2.46
75811;BMP280;64449;50.016;19.954;2024-01-15T07:07:32;96514.06;;;2.48
75811;BMP280;64449;50.016;19.954;2024-01-15T07:09:58;96518.77;;;2.51
75811;BMP280;64449;50.016;19.954;2024-01-15T07:12:23;96522.23;;;2.51
75811;BMP280;64449;50.016;19.954;2024-01-15T07:14:49;96524.88;;;2.53
75811;BMP280;64449;50.016;19.954;2024-01-15T07:17:15;96522.80;;;2.54
75811;BMP280;64449;50.016;19.954;2024-01-15T07:19:40;96524.31;;;2.55
75811;BMP280;64449;50.016;19.954;2024-01-15T07:22:06;96525.83;;;2.55
75811;BMP280;64449;50.016;19.954;2024-01-15T07:24:31;96529.10;;;2.56
75811;BMP280;64449;50.016;19.954;2024-01-15T07:26:59;96529.67;;;2.58
75811;BMP280;64449;50.016;19.954;2024-01-15T07:29:24;96530.36;;;2.60
75811;BMP280;64449;50.016;19.954;2024-01-15T07:31:51;96535.55;;;2.61
75811;BMP280;64449;50.016;19.954;2024-01-15T07:34:17;96533.46;;;2.63
75811;BMP280;64449;50.016;19.954;2024-01-15T07:36:44;96537.17;;;2.64
75811;BMP280;64449;50.016;19.954;2024-01-15T07:39:10;96536.78;;;2.67
75811;BMP280;64449;50.016;19.954;2024-01-15T07:41:35;96546.00;;;2.69
75811;BMP280;64449;50.016;19.954;2024-01-15T07:44:01;96554.05;;;2.73
75811;BMP280;64449;50.016;19.954;2024-01-15T07:46:27;96556.12;;;2.77
75811;BMP280;64449;50.016;19.954;2024-01-15T07:48:52;96564.59;;;2.78
75811;BMP280;64449;50.016;19.954;2024-01-15T07:51:22;96558.44;;;2.80
75811;BMP280;64449;50.016;19.954;2024-01-15T07:53:47;96562.80;;;2.83
75811;BMP280;64449;50.016;19.954;2024-01-15T07:56:13;96557.64;;;2.87
75811;BMP280;64449;50.016;19.954;2024-01-15T07:58:38;96562.00;;;2.91
75811;BMP280;64449;50.016;19.954;2024-01-15T08:01:04;96561.30;;;2.93
75811;BMP280;64449;50.016;19.954;2024-01-15T08:03:29;96557.10;;;2.96
75811;BMP280;64449;50.016;19.954;2024-01-15T08:05:55;96560.77;;;2.98
75811;BMP280;64449;50.016;19.954;2024-01-15T08:08:23;96559.09;;;3.04
75811;BMP280;64449;50.016;19.954;2024-01-15T08:10:49;96559.42;;;3.10
75811;BMP280;64449;50.016;19.954;2024-01-15T08:13:15;96568.33;;;3.16
75811;BMP280;64449;50.016;19.954;2024-01-15T08:15:41;96573.04;;;3.21
75811;BMP280;64449;50.016;19.954;2024-01-15T08:18:06;96569.34;;;3.26
75811;BMP280;64449;50.016;19.954;2024-01-15T08:20:32;96568.42;;;3.30
75811;BMP280;64449;50.016;19.954;2024-01-15T08:22:57;96562.83;;;3.34
75811;BMP280;64449;50.016;19.954;2024-01-15T08:25:23;96566.95;;;3.35
75811;BMP280;64449;50.016;19.954;2024-01-15T08:27:48;96576.09;;;3.36
75811;BMP280;64449;50.016;19.954;2024-01-15T08:30:14;96577.36;;;3.36
75811;BMP280;64449;50.016;19.954;2024-01-15T08:32:39;96586.20;;;3.34
75811;BMP280;64449;50.016;19.954;2024-01-15T08:35:08;96583.86;;;3.31
75811;BMP280;64449;50.016;19.954;2024-01-15T08:37:34;96582.80;;;3.26
75811;BMP280;64449;50.016;19.954;2024-01-15T08:39:59;96585.93;;;3.22
75811;BMP280;64449;50.016;19.954;2024-01-15T08:42:25;96585.01;;;3.18
75811;BMP280;64449;50.016;19.954;2024-01-15T08:44:50;96579.56;;;3.17
75811;BMP280;64449;50.016;19.954;2024-01-15T08:47:16;96579.39;;;3.19
75811;BMP280;64449;50.016;19.954;2024-01-15T08:49:42;96580.92;;;3.22
75811;BMP280;64449;50.016;19.954;2024-01-15T08:52:09;96584.02;;;3.28
75811;BMP280;64449;50.016;19.954;2024-01-15T08:54:35;96585.70;;;3.35
75811;BMP280;64449;50.016;19.954;2024-01-15T08:57:00;96589.53;;;3.41
75811;BMP280;64449;50.016;19.954;2024-01-15T08:59:26;96584.14;;;3.49
75811;BMP280;64449;50.016;19.954;2024-01-15T09:01:54;96579.14;;;3.56
75811;BMP280;64449;50.016;19.954;2024-01-15T09:04:23;96579.89;;;3.61
75811;BMP280;64449;50.016;19.954;2024-01-15T09:06:48;96584.38;;;3.68
75811;BMP280;64449;50.016;19.954;2024-01-15T09:09:14;96589.50;;;3.78
75811;BMP280;64449;50.016;19.954;2024-01-15T09:11:42;96593.52;;;3.87
75811;BMP280;64449;50.016;19.954;2024-01-15T09:14:07;96595.51;;;3.94
75811;BMP280;64449;50.016;19.954;2024-01-15T09:16:34;96597.36;;;3.98
75811;BMP280;64449;50.016;19.954;2024-01-15T09:19:00;96598.57;;;4.04
75811;BMP280;64449;50.016;19.954;2024-01-15T09:21:25;96602.32;;;4.04
75811;BMP280;64449;50.016;19.954;2024-01-15T09:23:51;96599.80;;;4.04
75811;BMP280;64449;50.016;19.954;2024-01-15T09:26:16;96595.05;;;3.99
75811;BMP280;64449;50.016;19.954;2024-01-15T09:28:42;96593.05;;;3.97
75811;BMP280;64449;50.016;19.954;2024-01-15T09:31:07;96600.13;;;3.94
75811;BMP280;64449;50.016;19.954;2024-01-15T09:33:33;96597.87;;;3.90
75811;BMP280;64449;50.016;19.954;2024-01-15T09:36:02;96595.08;;;3.85
75811;BMP280;64449;50.016;19.954;2024-01-15T09:38:31;96598.86;;;3.83
75811;BMP280;64449;50.016;19.954;2024-01-15T09:40:57;96595.92;;;3.85
75811;BMP280;64449;50.016;19.954;2024-01-15T09:43:23;96597.31;;;3.90
75811;BMP280;64449;50.016;19.954;2024-01-15T09:45:49;96597.30;;;3.96
75811;BMP280;64449;50.016;19.954;2024-01-15T09:48:15;96590.39;;;4.00
75811;BMP280;64449;50.016;19.954;2024-01-15T09:50:42;96595.91;;;3.97
75811;BMP280;64449;50.016;19.954;2024-01-15T09:53:09;96604.06;;;3.93
75811;BMP280;64449;50.016;19.954;2024-01-15T09:55:36;96597.98;;;3.85
75811;BMP280;64449;50.016;19.954;2024-01-15T09:58:03;96598.96;;;3.77
75811;BMP280;64449;50.016;19.954;2024-01-15T10:00:29;96603.13;;;3.68
75811;BMP280;64449;50.016;19.954;2024-01-15T10:02:56;96605.77;;;3.60
75811;BMP280;64449;50.016;19.954;2024-01-15T10:05:21;96600.27;;;3.53
75811;BMP280;64449;50.016;19.954;2024-01-15T10:07:47;96603.55;;;3.54
75811;BMP280;64449;50.016;19.954;2024-01-15T10:10:15;96597.66;;;3.59
75811;BMP280;64449;50.016;19.954;2024-01-15T10:12:41;96594.02;;;3.64
75811;BMP280;64449;50.016;19.954;2024-01-15T10:15:10;96591.15;;;3.63
75811;BMP280;64449;50.016;19.954;2024-01-15T10:17:40;96593.60;;;3.63
75811;BMP280;64449;50.016;19.954;2024-01-15T10:20:12;96597.84;;;3.61
75811;BMP280;64449;50.016;19.954;2024-01-15T10:22:41;96601.61;;;3.60
75811;BMP280;64449;50.016;19.954;2024-01-15T10:25:10;96596.19;;;3.59
75811;BMP280;64449;50.016;19.954;2024-01-15T10:27:36;96596.00;;;3.56
75811;BMP280;64449;50.016;19.954;2024-01-15T10:30:01;96591.66;;;3.51
75811;BMP280;64449;50.016;19.954;2024-01-15T10:32:28;96595.92;;;3.47
75811;BMP280;64449;50.016;19.954;2024-01-15T10:34:54;96588.14;;;3.43
75811;BMP280;64449;50.016;19.954;2024-01-15T10:37:20;96590.83;;;3.43
75811;BMP280;64449;50.016;19.954;2024-01-15T10:39:48;96583.41;;;3.41
75811;BMP280;64449;50.016;19.954;2024-01-15T10:42:14;96585.66;;;3.38
75811;BMP280;64449;50.016;19.954;2024-01-15T10:44:41;96583.07;;;3.33
75811;BMP280;64449;50.016;19.954;2024-01-15T10:47:08;96578.13;;;3.33
75811;BMP280;64449;50.016;19.954;2024-01-15T10:49:34;96573.60;;;3.34
75811;BMP280;64449;50.016;19.954;2024-01-15T10:52:02;96573.29;;;3.35
75811;BMP280;64449;50.016;19.954;2024-01-15T10:54:28;96564.17;;;3.36
75811;BMP280;64449;50.016;19.954;2024-01-15T10:56:55;96573.20;;;3.38
75811;BMP280;64449;50.016;19.954;2024-01-15T10:59:21;96574.27;;;3.38
75811;BMP280;64449;50.016;19.954;2024-01-15T11:01:48;96574.90;;;3.38
75811;BMP280;64449;50.016;19.954;2024-01-15T11:04:14;96580.08;;;3.39
75811;BMP280;64449;50.016;19.954;2024-01-15T11:06:45;96569.57;;;3.40
75811;BMP280;64449;50.016;19.954;2024-01-15T11:09:12;96569.58;;;3.42
75811;BMP280;64449;50.016;19.954;2024-01-15T11:11:42;96564.23;;;3.48
75811;BMP280;64449;50.016;19.954;2024-01-15T11:14:08;96572.14;;;3.58
75811;BMP280;64449;50.016;19.954;2024-01-15T11:16:53;96570.73;;;3.70
75811;BMP280;64449;50.016;19.954;2024-01-15T11:19:20;96573.48;;;3.94
75811;BMP280;64449;50.016;19.954;2024-01-15T11:21:45;96576.98;;;4.32
75811;BMP280;64449;50.016;19.954;2024-01-15T11:24:10;96571.34;;;4.43
75811;BMP280;64449;50.016;19.954;2024-01-15T11:26:56;96575.71;;;4.44
75811;BMP280;64449;50.016;19.954;2024-01-15T11:32:01;96573.27;;;4.61
75811;BMP280;64449;50.016;19.954;2024-01-15T11:34:58;96569.47;;;4.89
75811;BMP280;64449;50.016;19.954;2024-01-15T11:37:25;96564.07;;;5.03
75811;BMP280;64449;50.016;19.954;2024-01-15T11:39:53;96555.36;;;5.33
75811;BMP280;64449;50.016;19.954;2024-01-15T11:42:20;96564.48;;;5.64
75811;BMP280;64449;50.016;19.954;2024-01-15T11:44:47;96553.46;;;5.80
75811;BMP280;64449;50.016;19.954;2024-01-15T11:47:12;96554.25;;;5.90
75811;BMP280;64449;50.016;19.954;2024-01-15T11:52:22;96556.77;;;6.20
75811;BMP280;64449;50.016;19.954;2024-01-15T11:57:36;96569.59;;;5.83
75811;BMP280;64449;50.016;19.954;2024-01-15T12:00:04;96559.84;;;5.58
75811;BMP280;64449;50.016;19.954;2024-01-15T12:02:33;96566.88;;;5.29
75811;BMP280;64449;50.016;19.954;2024-01-15T12:04:58;96573.10;;;5.05
75811;BMP280;64449;50.016;19.954;2024-01-15T12:07:23;96574.45;;;4.80
75811;BMP280;64449;50.016;19.954;2024-01-15T12:09:49;96560.95;;;4.57
75811;BMP280;64449;50.016;19.954;2024-01-15T12:12:16;96563.63;;;4.42
75811;BMP280;64449;50.016;19.954;2024-01-15T12:14:44;96571.98;;;4.29
75811;BMP280;64449;50.016;19.954;2024-01-15T12:17:09;96568.52;;;4.18
75811;BMP280;64449;50.016;19.954;2024-01-15T12:19:36;96566.20;;;4.10
75811;BMP280;64449;50.016;19.954;2024-01-15T12:22:02;96570.10;;;4.04
75811;BMP280;64449;50.016;19.954;2024-01-15T12:24:27;96554.00;;;3.99
75811;BMP280;64449;50.016;19.954;2024-01-15T12:26:53;96561.36;;;3.96
75811;BMP280;64449;50.016;19.954;2024-01-15T12:29:18;96559.89;;;3.95
75811;BMP280;64449;50.016;19.954;2024-01-15T12:31:46;96559.89;;;3.97
75811;BMP280;64449;50.016;19.954;2024-01-15T12:34:11;96554.18;;;3.98
75811;BMP280;64449;50.016;19.954;2024-01-15T12:36:37;96565.00;;;3.93
75811;BMP280;64449;50.016;19.954;2024-01-15T12:39:02;96569.17;;;3.88
75811;BMP280;64449;50.016;19.954;2024-01-15T12:41:28;96559.83;;;3.80
75811;BMP280;64449;50.016;19.954;2024-01-15T12:43:53;96562.48;;;3.73
75811;BMP280;64449;50.016;19.954;2024-01-15T12:46:19;96560.89;;;3.70
75811;BMP280;64449;50.016;19.954;2024-01-15T12:48:44;96563.02;;;3.70
75811;BMP280;64449;50.016;19.954;2024-01-15T12:51:09;96564.65;;;3.73
75811;BMP280;64449;50.016;19.954;2024-01-15T12:53:35;96565.88;;;3.75
75811;BMP280;64449;50.016;19.954;2024-01-15T12:56:01;96575.75;;;3.74
75811;BMP280;64449;50.016;19.954;2024-01-15T12:58:26;96573.96;;;3.72
75811;BMP280;64449;50.016;19.954;2024-01-15T13:00:51;96569.50;;;3.69
75811;BMP280;64449;50.016;19.954;2024-01-15T13:03:17;96563.77;;;3.67
75811;BMP280;64449;50.016;19.954;2024-01-15T13:05:42;96564.58;;;3.64
75811;BMP280;64449;50.016;19.954;2024-01-15T13:08:07;96555.41;;;3.63
75811;BMP280;64449;50.016;19.954;2024-01-15T13:10:33;96555.01;;;3.62
75811;BMP280;64449;50.016;19.954;2024-01-15T13:12:58;96546.30;;;3.60
75811;BMP280;64449;50.016;19.954;2024-01-15T13:15:24;96554.05;;;3.60
75811;BMP280;64449;50.016;19.954;2024-01-15T13:17:49;96552.52;;;3.58
75811;BMP280;64449;50.016;19.954;2024-01-15T13:20:14;96554.44;;;3.57
75811;BMP280;64449;50.016;19.954;2024-01-15T13:22:40;96560.52;;;3.54
75811;BMP280;64449;50.016;19.954;2024-01-15T13:25:08;96551.48;;;3.50
75811;BMP280;64449;50.016;19.954;2024-01-15T13:27:34;96550.94;;;3.44
75811;BMP280;64449;50.016;19.954;2024-01-15T13:30:03;96542.18;;;3.42
75811;BMP280;64449;50.016;19.954;2024-01-15T13:32:29;96531.59;;;3.39
75811;BMP280;64449;50.016;19.954;2024-01-15T13:34:59;96538.15;;;3.38
75811;BMP280;64449;50.016;19.954;2024-01-15T13:37:27;96529.51;;;3.38
75811;BMP280;64449;50.016;19.954;2024-01-15T13:39:52;96527.53;;;3.37
75811;BMP280;64449;50.016;19.954;2024-01-15T13:42:18;96524.41;;;3.33
75811;BMP280;64449;50.016;19.954;2024-01-15T13:44:44;96535.15;;;3.30
75811;BMP280;64449;50.016;19.954;2024-01-15T13:47:09;96537.02;;;3.31
75811;BMP280;64449;50.016;19.954;2024-01-15T13:49:35;96536.00;;;3.30
75811;BMP280;64449;50.016;19.954;2024-01-15T13:52:02;96535.27;;;3.28
75811;BMP280;64449;50.016;19.954;2024-01-15T13:54:29;96539.02;;;3.26
75811;BMP280;64449;50.016;19.954;2024-01-15T13:56:55;96537.52;;;3.25
75811;BMP280;64449;50.016;19.954;2024-01-15T13:59:21;96545.21;;;3.23
75811;BMP280;64449;50.016;19.954;2024-01-15T14:01:46;96542.89;;;3.23
75811;BMP280;64449;50.016;19.954;2024-01-15T14:04:12;96540.45;;;3.22
75811;BMP280;64449;50.016;19.954;2024-01-15T14:06:38;96540.81;;;3.19
75811;BMP280;64449;50.016;19.954;2024-01-15T14:09:04;96535.48;;;3.17
75811;BMP280;64449;50.016;19.954;2024-01-15T14:11:30;96531.87;;;3.14
75811;BMP280;64449;50.016;19.954;2024-01-15T14:13:56;96533.20;;;3.10